OMDB/DXB METAR and TAF weather

Enter ICAO airport designator
Station Type Date Time Source
OMDB METAR 2022/12/04 04:00 UTC NOAA

OMDB 040400Z 21004KT 5000 HZ NSC 21/17 Q1017 BECMG 7000 NSW


Station Type Date Time Source
OMDB Decoded METAR 2022/12/04 04:00 UTC NOAA

Dubai International Airport, United Arab Emirates (OMDB) 25-15N 055-20E 5M
Dec 03, 2022 - 11:00 PM EST / 2022.12.04 0400 UTC
Wind: from the SSW (210 degrees) at 5 MPH (4 KT):0
Visibility: 3 mile(s):0
Weather: haze
Temperature: 69 F (21 C)
Dew Point: 62 F (17 C)
Relative Humidity: 77%
Pressure (altimeter): 30.03 in. Hg (1017 hPa)
ob: OMDB 040400Z 21004KT 5000 HZ NSC 21/17 Q1017 BECMG 7000 NSW
cycle: 4

Station Type Date Time Source
OMDB TAF 2022/12/04 02:51 UTC NOAA

TAF
AMD TAF
AMD OMDB 040247Z 0402/0506 17005KT 3000 HZ FEW025
BECMG 0403/0405 6000 NSW
BECMG 0407/0409 31010KT
BECMG 0416/0418 12005KT PROB30 0501/0505 4000 HZ

Example: see airport list